Terminal Aerodrome Forecast
Issued by NWS

Home | Current Version | Previous Version | Text Only | Print | Product List | Glossary On
Versions: 1 2 3 4 5 6 7 8 9 10 11 12 13 14 15 16 17 18 19 20
481
FTUS44 KTSA 161126
TAFXNA
TAF
KXNA 161126Z 1612/1712 14016G24KT P6SM SCT020 BKN100 OVC110
      TEMPO 1612/1615 BKN020
     FM161500 18012G18KT 4SM BR OVC012
      TEMPO 1615/1618 OVC007
     FM162100 21012G18KT P6SM SCT025 SCT250
     FM170000 24010KT P6SM BKN025
     FM170800 27006KT 4SM BR OVC015=

USA.gov is the U.S. government's official web portal to all federal, state and local government web resources and services.